^^
Meteo Knjazevac Station Historical Data
Daily Summary for April 5, 2021 Units:  Both    English   Metric
Daily Weekly Monthly Yearly Custom
  High: Low: Average:
Temperature: 35.8 °F /  2.1 °C 34.6 °F /  1.4 °C 35.4 °F /  1.9 °C
Dew Point: 35.5 °F /  1.9 °C 33.9 °F /  1.1 °C 35.1 °F /  1.7 °C
Humidity: 99% 96% 99%
Wind Speed: 3mph /  4.8km/h - 1.3mph /  2.1km/h
Wind Gust: 5mph /  8km/h - -
Wind- - WSW
Pressure: 29.87 in /  1011.4 hPa 29.85 in /  1010.7 hPa -
Precipitation: 0.00 in /  0 mm    
Historical Graphs
 
 
Tabular Data for April 5, 2021
Time Temperature Dew Point Pressure Wind Wind Speed Wind Gust Humidity Rainfall Rate (Hourly) solar Conditions
00:00 34.9 °F /  1.6 °C 33.9 °F /  1.1 °C 29.87in /  1011.4hPa NNW 1mph /  1.6km/h 2mph /  3.2km/h 96% 0.00in /  0mm 0 W/m2
00:10 34.9 °F /  1.6 °C 34.4 °F /  1.3 °C 29.87in /  1011.4hPa West 1mph /  1.6km/h 2mph /  3.2km/h 98% 0.00in /  0mm 0 W/m2
00:20 34.9 °F /  1.6 °C 34.4 °F /  1.3 °C 29.87in /  1011.4hPa WNW 1mph /  1.6km/h 2mph /  3.2km/h 98% 0.00in /  0mm 0 W/m2
00:30 35.1 °F /  1.7 °C 34.6 °F /  1.4 °C 29.87in /  1011.4hPa WNW 1mph /  1.6km/h 2mph /  3.2km/h 98% 0.00in /  0mm 0 W/m2
00:40 35.1 °F /  1.7 °C 34.6 °F /  1.4 °C 29.86in /  1011.1hPa WNW 2mph /  3.2km/h 3mph /  4.8km/h 98% 0.00in /  0mm 0 W/m2
00:50 35.2 °F /  1.8 °C 34.7 °F /  1.5 °C 29.86in /  1011.1hPa WNW 1mph /  1.6km/h 3mph /  4.8km/h 98% 0.00in /  0mm 0 W/m2
01:00 35.2 °F /  1.8 °C 34.7 °F /  1.5 °C 29.86in /  1011.1hPa WNW 1mph /  1.6km/h 3mph /  4.8km/h 98% 0.00in /  0mm 0 W/m2
01:10 35.4 °F /  1.9 °C 35.2 °F /  1.8 °C 29.87in /  1011.4hPa WNW 2mph /  3.2km/h 3mph /  4.8km/h 99% 0.00in /  0mm 0 W/m2
01:20 35.4 °F /  1.9 °C 35.2 °F /  1.8 °C 29.86in /  1011.1hPa Calm   2mph /  3.2km/h 99% 0.00in /  0mm 0 W/m2
01:30 35.5 °F /  1.9 °C 35.2 °F /  1.8 °C 29.86in /  1011.1hPa WNW 1mph /  1.6km/h 2mph /  3.2km/h 99% 0.00in /  0mm 0 W/m2
01:40 35.5 °F /  1.9 °C 35.2 °F /  1.8 °C 29.87in /  1011.4hPa WSW 2mph /  3.2km/h 3mph /  4.8km/h 99% 0.00in /  0mm 0 W/m2
01:50 35.6 °F /  2 °C 35.3 °F /  1.8 °C 29.87in /  1011.4hPa WNW 1mph /  1.6km/h 3mph /  4.8km/h 99% 0.00in /  0mm 0 W/m2
02:00 35.6 °F /  2 °C 35.3 °F /  1.8 °C 29.87in /  1011.4hPa West 1mph /  1.6km/h 3mph /  4.8km/h 99% 0.00in /  0mm 0 W/m2
02:10 35.6 °F /  2 °C 35.3 °F /  1.8 °C 29.87in /  1011.4hPa West 1mph /  1.6km/h 2mph /  3.2km/h 99% 0.00in /  0mm 0 W/m2
02:20 35.6 °F /  2 °C 35.3 °F /  1.8 °C 29.87in /  1011.4hPa SSW 1mph /  1.6km/h 2mph /  3.2km/h 99% 0.00in /  0mm 0 W/m2
02:30 35.6 °F /  2 °C 35.3 °F /  1.8 °C 29.86in /  1011.1hPa SSW 1mph /  1.6km/h 2mph /  3.2km/h 99% 0.00in /  0mm 0 W/m2
02:40 35.7 °F /  2.1 °C 35.4 °F /  1.9 °C 29.86in /  1011.1hPa SSW 1mph /  1.6km/h 2mph /  3.2km/h 99% 0.00in /  0mm 0 W/m2
02:50 35.7 °F /  2.1 °C 35.4 °F /  1.9 °C 29.86in /  1011.1hPa WSW 1mph /  1.6km/h 3mph /  4.8km/h 99% 0.00in /  0mm 0 W/m2
03:00 35.8 °F /  2.1 °C 35.5 °F /  1.9 °C 29.86in /  1011.1hPa WNW 1mph /  1.6km/h 3mph /  4.8km/h 99% 0.00in /  0mm 0 W/m2
03:10 35.8 °F /  2.1 °C 35.5 °F /  1.9 °C 29.86in /  1011.1hPa WNW 2mph /  3.2km/h 3mph /  4.8km/h 99% 0.00in /  0mm 0 W/m2
03:20 35.8 °F /  2.1 °C 35.5 °F /  1.9 °C 29.86in /  1011.1hPa WNW 1mph /  1.6km/h 2mph /  3.2km/h 99% 0.00in /  0mm 0 W/m2
03:30 35.8 °F /  2.1 °C 35.5 °F /  1.9 °C 29.85in /  1010.7hPa Calm   2mph /  3.2km/h 99% 0.00in /  0mm 0 W/m2
03:40 35.8 °F /  2.1 °C 35.5 °F /  1.9 °C 29.85in /  1010.7hPa SW 1mph /  1.6km/h 3mph /  4.8km/h 99% 0.00in /  0mm 0 W/m2
03:50 35.8 °F /  2.1 °C 35.5 °F /  1.9 °C 29.85in /  1010.7hPa WSW 1mph /  1.6km/h 2mph /  3.2km/h 99% 0.00in /  0mm 0 W/m2
04:00 35.8 °F /  2.1 °C 35.5 °F /  1.9 °C 29.85in /  1010.7hPa WNW 1mph /  1.6km/h 3mph /  4.8km/h 99% 0.00in /  0mm 0 W/m2
04:10 35.8 °F /  2.1 °C 35.5 °F /  1.9 °C 29.85in /  1010.7hPa WSW 1mph /  1.6km/h 3mph /  4.8km/h 99% 0.00in /  0mm 0 W/m2
04:20 35.8 °F /  2.1 °C 35.5 °F /  1.9 °C 29.85in /  1010.7hPa West 1mph /  1.6km/h 3mph /  4.8km/h 99% 0.00in /  0mm 0 W/m2
04:30 35.8 °F /  2.1 °C 35.5 °F /  1.9 °C 29.85in /  1010.7hPa West 1mph /  1.6km/h 3mph /  4.8km/h 99% 0.00in /  0mm 0 W/m2
04:40 35.6 °F /  2 °C 35.3 °F /  1.8 °C 29.85in /  1010.7hPa SSW 1mph /  1.6km/h 2mph /  3.2km/h 99% 0.00in /  0mm 0 W/m2
04:50 35.5 °F /  1.9 °C 35.2 °F /  1.8 °C 29.85in /  1010.7hPa SSW 2mph /  3.2km/h 5mph /  8km/h 99% 0.00in /  0mm 0 W/m2
05:00 35.4 °F /  1.9 °C 35.2 °F /  1.8 °C 29.85in /  1010.7hPa South 2mph /  3.2km/h 5mph /  8km/h 99% 0.00in /  0mm 0 W/m2
05:10 35.2 °F /  1.8 °C 35 °F /  1.7 °C 29.85in /  1010.7hPa SSW 2mph /  3.2km/h 4mph /  6.4km/h 99% 0.00in /  0mm 0 W/m2
05:20 35.2 °F /  1.8 °C 35 °F /  1.7 °C 29.85in /  1010.7hPa SSW 2mph /  3.2km/h 4mph /  6.4km/h 99% 0.00in /  0mm 0 W/m2
05:30 35.2 °F /  1.8 °C 35 °F /  1.7 °C 29.85in /  1010.7hPa WSW 1mph /  1.6km/h 5mph /  8km/h 99% 0.00in /  0mm 0 W/m2
05:40 35.2 °F /  1.8 °C 35 °F /  1.7 °C 29.86in /  1011.1hPa SW 2mph /  3.2km/h 4mph /  6.4km/h 99% 0.00in /  0mm 0 W/m2
05:50 35.1 °F /  1.7 °C 34.8 °F /  1.6 °C 29.86in /  1011.1hPa SSW 2mph /  3.2km/h 3mph /  4.8km/h 99% 0.00in /  0mm 0 W/m2
06:00 34.9 °F /  1.6 °C 34.6 °F /  1.4 °C 29.86in /  1011.1hPa SSW 2mph /  3.2km/h 5mph /  8km/h 99% 0.00in /  0mm 0 W/m2
06:10 34.9 °F /  1.6 °C 34.6 °F /  1.4 °C 29.85in /  1010.7hPa South 1mph /  1.6km/h 5mph /  8km/h 99% 0.00in /  0mm 0 W/m2
06:20 34.7 °F /  1.5 °C 34.4 °F /  1.3 °C 29.85in /  1010.7hPa SSW 2mph /  3.2km/h 5mph /  8km/h 99% 0.00in /  0mm 0 W/m2
06:30 34.7 °F /  1.5 °C 34.4 °F /  1.3 °C 29.86in /  1011.1hPa WSW 1mph /  1.6km/h 3mph /  4.8km/h 99% 0.00in /  0mm 0 W/m2
06:40 34.6 °F /  1.4 °C 34.4 °F /  1.3 °C 29.86in /  1011.1hPa SW 3mph /  4.8km/h 5mph /  8km/h 99% 0.00in /  0mm 0 W/m2
Knjazevac, Serbia
Compliments of Weather Underground - 2 mb